sensor_id;sensor_type;location;lat;lon;timestamp;P1;durP1;ratioP1;P2;durP2;ratioP2
67861;SDS011;54665;51.462;6.698;2023-07-09T00:00:59;11.07;;;4.93;;
67861;SDS011;54665;51.462;6.698;2023-07-09T00:02:59;10.00;;;5.10;;
67861;SDS011;54665;51.462;6.698;2023-07-09T00:04:59;9.48;;;4.65;;
67861;SDS011;54665;51.462;6.698;2023-07-09T00:07:00;10.47;;;4.90;;
67861;SDS011;54665;51.462;6.698;2023-07-09T00:09:03;9.40;;;4.60;;
67861;SDS011;54665;51.462;6.698;2023-07-09T00:11:03;8.60;;;4.63;;
67861;SDS011;54665;51.462;6.698;2023-07-09T00:13:03;8.27;;;4.77;;
67861;SDS011;54665;51.462;6.698;2023-07-09T00:15:04;9.83;;;5.03;;
67861;SDS011;54665;51.462;6.698;2023-07-09T00:17:07;8.60;;;4.80;;
67861;SDS011;54665;51.462;6.698;2023-07-09T00:19:20;9.30;;;4.60;;
67861;SDS011;54665;51.462;6.698;2023-07-09T00:21:22;12.35;;;4.90;;
67861;SDS011;54665;51.462;6.698;2023-07-09T00:23:22;7.65;;;4.68;;
67861;SDS011;54665;51.462;6.698;2023-07-09T00:25:23;8.93;;;4.63;;
67861;SDS011;54665;51.462;6.698;2023-07-09T00:27:25;7.83;;;4.70;;
67861;SDS011;54665;51.462;6.698;2023-07-09T00:29:27;9.07;;;4.65;;
67861;SDS011;54665;51.462;6.698;2023-07-09T00:31:28;8.23;;;4.70;;
67861;SDS011;54665;51.462;6.698;2023-07-09T00:33:28;7.63;;;4.60;;
67861;SDS011;54665;51.462;6.698;2023-07-09T00:35:28;9.83;;;4.80;;
67861;SDS011;54665;51.462;6.698;2023-07-09T00:37:28;8.77;;;4.63;;
67861;SDS011;54665;51.462;6.698;2023-07-09T00:39:30;9.70;;;4.63;;
67861;SDS011;54665;51.462;6.698;2023-07-09T00:41:34;7.53;;;4.80;;
67861;SDS011;54665;51.462;6.698;2023-07-09T00:43:36;9.68;;;4.80;;
67861;SDS011;54665;51.462;6.698;2023-07-09T00:45:36;8.83;;;4.50;;
67861;SDS011;54665;51.462;6.698;2023-07-09T00:47:43;7.95;;;4.65;;
67861;SDS011;54665;51.462;6.698;2023-07-09T00:49:48;8.20;;;4.80;;
67861;SDS011;54665;51.462;6.698;2023-07-09T00:51:49;9.15;;;4.72;;
67861;SDS011;54665;51.462;6.698;2023-07-09T00:53:50;9.20;;;4.50;;
67861;SDS011;54665;51.462;6.698;2023-07-09T00:55:55;10.50;;;5.05;;
67861;SDS011;54665;51.462;6.698;2023-07-09T00:58:02;11.32;;;5.13;;
67861;SDS011;54665;51.462;6.698;2023-07-09T01:00:11;9.80;;;5.00;;
67861;SDS011;54665;51.462;6.698;2023-07-09T01:02:13;11.10;;;4.95;;
67861;SDS011;54665;51.462;6.698;2023-07-09T01:04:15;8.35;;;4.80;;
67861;SDS011;54665;51.462;6.698;2023-07-09T01:06:28;9.60;;;5.00;;
67861;SDS011;54665;51.462;6.698;2023-07-09T01:08:32;8.05;;;4.60;;
67861;SDS011;54665;51.462;6.698;2023-07-09T01:10:34;11.03;;;4.93;;
67861;SDS011;54665;51.462;6.698;2023-07-09T01:12:35;9.68;;;4.97;;
67861;SDS011;54665;51.462;6.698;2023-07-09T01:14:35;7.60;;;4.73;;
67861;SDS011;54665;51.462;6.698;2023-07-09T01:16:38;8.73;;;4.68;;
67861;SDS011;54665;51.462;6.698;2023-07-09T01:18:42;7.72;;;4.70;;
67861;SDS011;54665;51.462;6.698;2023-07-09T01:20:42;8.90;;;4.90;;
67861;SDS011;54665;51.462;6.698;2023-07-09T01:22:43;9.23;;;4.60;;
67861;SDS011;54665;51.462;6.698;2023-07-09T01:24:54;10.67;;;5.00;;
67861;SDS011;54665;51.462;6.698;2023-07-09T01:26:55;9.18;;;4.55;;
67861;SDS011;54665;51.462;6.698;2023-07-09T01:28:55;8.30;;;4.73;;
67861;SDS011;54665;51.462;6.698;2023-07-09T01:30:56;7.43;;;4.60;;
67861;SDS011;54665;51.462;6.698;2023-07-09T01:32:57;9.13;;;4.80;;
67861;SDS011;54665;51.462;6.698;2023-07-09T01:35:01;9.05;;;5.20;;
67861;SDS011;54665;51.462;6.698;2023-07-09T01:37:02;8.23;;;4.85;;
67861;SDS011;54665;51.462;6.698;2023-07-09T01:39:03;9.17;;;4.90;;
67861;SDS011;54665;51.462;6.698;2023-07-09T01:41:03;10.97;;;5.37;;
67861;SDS011;54665;51.462;6.698;2023-07-09T01:43:04;9.50;;;5.50;;
67861;SDS011;54665;51.462;6.698;2023-07-09T01:45:05;9.90;;;5.45;;
67861;SDS011;54665;51.462;6.698;2023-07-09T01:47:07;10.65;;;5.30;;
67861;SDS011;54665;51.462;6.698;2023-07-09T01:49:07;10.93;;;5.00;;
67861;SDS011;54665;51.462;6.698;2023-07-09T01:51:11;10.02;;;5.50;;
67861;SDS011;54665;51.462;6.698;2023-07-09T01:53:14;9.97;;;5.40;;
67861;SDS011;54665;51.462;6.698;2023-07-09T01:55:16;11.02;;;5.63;;
67861;SDS011;54665;51.462;6.698;2023-07-09T01:57:18;11.97;;;5.90;;
67861;SDS011;54665;51.462;6.698;2023-07-09T01:59:20;10.68;;;5.70;;
67861;SDS011;54665;51.462;6.698;2023-07-09T02:01:21;10.70;;;5.60;;
67861;SDS011;54665;51.462;6.698;2023-07-09T02:03:21;12.27;;;6.07;;
67861;SDS011;54665;51.462;6.698;2023-07-09T02:05:22;10.30;;;5.40;;
67861;SDS011;54665;51.462;6.698;2023-07-09T02:07:23;10.37;;;5.60;;
67861;SDS011;54665;51.462;6.698;2023-07-09T02:09:24;10.23;;;5.80;;
67861;SDS011;54665;51.462;6.698;2023-07-09T02:11:24;11.70;;;6.00;;
67861;SDS011;54665;51.462;6.698;2023-07-09T02:13:25;10.30;;;5.47;;
67861;SDS011;54665;51.462;6.698;2023-07-09T02:15:25;11.27;;;5.87;;
67861;SDS011;54665;51.462;6.698;2023-07-09T02:17:26;11.03;;;6.20;;
67861;SDS011;54665;51.462;6.698;2023-07-09T02:19:27;11.80;;;6.40;;
67861;SDS011;54665;51.462;6.698;2023-07-09T02:21:31;12.23;;;5.78;;
67861;SDS011;54665;51.462;6.698;2023-07-09T02:23:31;11.53;;;6.27;;
67861;SDS011;54665;51.462;6.698;2023-07-09T02:25:32;11.88;;;6.15;;
67861;SDS011;54665;51.462;6.698;2023-07-09T02:27:33;11.40;;;5.97;;
67861;SDS011;54665;51.462;6.698;2023-07-09T02:29:34;12.52;;;6.47;;
67861;SDS011;54665;51.462;6.698;2023-07-09T02:31:35;12.63;;;6.90;;
67861;SDS011;54665;51.462;6.698;2023-07-09T02:33:35;13.43;;;6.63;;
67861;SDS011;54665;51.462;6.698;2023-07-09T02:35:35;15.03;;;7.67;;
67861;SDS011;54665;51.462;6.698;2023-07-09T02:37:36;18.67;;;7.27;;
67861;SDS011;54665;51.462;6.698;2023-07-09T02:39:36;16.20;;;8.13;;
67861;SDS011;54665;51.462;6.698;2023-07-09T02:41:36;15.80;;;7.80;;
67861;SDS011;54665;51.462;6.698;2023-07-09T02:43:37;12.53;;;7.40;;
67861;SDS011;54665;51.462;6.698;2023-07-09T02:45:37;13.60;;;7.53;;
67861;SDS011;54665;51.462;6.698;2023-07-09T02:47:38;14.50;;;7.17;;
67861;SDS011;54665;51.462;6.698;2023-07-09T02:49:38;15.83;;;7.43;;
67861;SDS011;54665;51.462;6.698;2023-07-09T02:51:39;17.27;;;7.97;;
67861;SDS011;54665;51.462;6.698;2023-07-09T02:53:40;15.38;;;7.80;;
67861;SDS011;54665;51.462;6.698;2023-07-09T02:55:40;16.37;;;8.10;;
67861;SDS011;54665;51.462;6.698;2023-07-09T02:57:40;13.03;;;7.30;;
67861;SDS011;54665;51.462;6.698;2023-07-09T02:59:41;13.17;;;6.80;;
67861;SDS011;54665;51.462;6.698;2023-07-09T03:01:41;16.08;;;7.75;;
67861;SDS011;54665;51.462;6.698;2023-07-09T03:03:41;15.37;;;7.80;;
67861;SDS011;54665;51.462;6.698;2023-07-09T03:05:42;17.53;;;7.57;;
67861;SDS011;54665;51.462;6.698;2023-07-09T03:07:44;15.40;;;7.80;;
67861;SDS011;54665;51.462;6.698;2023-07-09T03:09:45;13.07;;;7.30;;
67861;SDS011;54665;51.462;6.698;2023-07-09T03:11:45;13.37;;;7.23;;
67861;SDS011;54665;51.462;6.698;2023-07-09T03:13:46;11.67;;;6.63;;
67861;SDS011;54665;51.462;6.698;2023-07-09T03:15:54;13.05;;;7.13;;
67861;SDS011;54665;51.462;6.698;2023-07-09T03:17:55;12.43;;;7.28;;
67861;SDS011;54665;51.462;6.698;2023-07-09T03:19:55;14.83;;;7.23;;
67861;SDS011;54665;51.462;6.698;2023-07-09T03:21:56;13.43;;;7.13;;
67861;SDS011;54665;51.462;6.698;2023-07-09T03:23:56;14.33;;;6.80;;
67861;SDS011;54665;51.462;6.698;2023-07-09T03:25:57;15.15;;;6.88;;
67861;SDS011;54665;51.462;6.698;2023-07-09T03:27:57;11.20;;;6.57;;
67861;SDS011;54665;51.462;6.698;2023-07-09T03:29:57;12.00;;;7.00;;
67861;SDS011;54665;51.462;6.698;2023-07-09T03:31:58;13.07;;;6.97;;
67861;SDS011;54665;51.462;6.698;2023-07-09T03:33:58;13.20;;;6.77;;
67861;SDS011;54665;51.462;6.698;2023-07-09T03:35:58;13.40;;;6.97;;
67861;SDS011;54665;51.462;6.698;2023-07-09T03:37:59;12.43;;;6.35;;
67861;SDS011;54665;51.462;6.698;2023-07-09T03:39:59;12.53;;;6.27;;
67861;SDS011;54665;51.462;6.698;2023-07-09T03:41:59;12.33;;;6.60;;
67861;SDS011;54665;51.462;6.698;2023-07-09T03:43:59;10.07;;;5.87;;
67861;SDS011;54665;51.462;6.698;2023-07-09T03:46:00;14.03;;;6.40;;
67861;SDS011;54665;51.462;6.698;2023-07-09T03:48:00;12.20;;;5.97;;
67861;SDS011;54665;51.462;6.698;2023-07-09T03:50:01;11.00;;;6.35;;
67861;SDS011;54665;51.462;6.698;2023-07-09T03:52:01;12.70;;;6.17;;
67861;SDS011;54665;51.462;6.698;2023-07-09T03:54:02;10.10;;;5.87;;
67861;SDS011;54665;51.462;6.698;2023-07-09T03:56:02;11.57;;;6.30;;
67861;SDS011;54665;51.462;6.698;2023-07-09T03:58:02;11.37;;;6.33;;
67861;SDS011;54665;51.462;6.698;2023-07-09T04:00:03;10.87;;;6.67;;
67861;SDS011;54665;51.462;6.698;2023-07-09T04:02:15;10.25;;;5.80;;
67861;SDS011;54665;51.462;6.698;2023-07-09T04:04:15;10.80;;;6.20;;
67861;SDS011;54665;51.462;6.698;2023-07-09T04:06:15;11.00;;;5.80;;
67861;SDS011;54665;51.462;6.698;2023-07-09T04:08:16;10.67;;;5.93;;
67861;SDS011;54665;51.462;6.698;2023-07-09T04:10:16;10.33;;;5.67;;
67861;SDS011;54665;51.462;6.698;2023-07-09T04:12:17;10.93;;;5.85;;
67861;SDS011;54665;51.462;6.698;2023-07-09T04:14:17;10.00;;;6.07;;
67861;SDS011;54665;51.462;6.698;2023-07-09T04:16:17;11.03;;;5.40;;
67861;SDS011;54665;51.462;6.698;2023-07-09T04:18:18;10.03;;;5.80;;
67861;SDS011;54665;51.462;6.698;2023-07-09T04:20:18;10.27;;;6.03;;
67861;SDS011;54665;51.462;6.698;2023-07-09T04:22:18;9.90;;;5.90;;
67861;SDS011;54665;51.462;6.698;2023-07-09T04:24:19;10.87;;;6.07;;
67861;SDS011;54665;51.462;6.698;2023-07-09T04:26:19;11.30;;;6.43;;
67861;SDS011;54665;51.462;6.698;2023-07-09T04:28:20;11.33;;;5.80;;
67861;SDS011;54665;51.462;6.698;2023-07-09T04:30:20;11.57;;;6.03;;
67861;SDS011;54665;51.462;6.698;2023-07-09T04:32:20;9.83;;;5.97;;
67861;SDS011;54665;51.462;6.698;2023-07-09T04:34:21;12.67;;;6.03;;
67861;SDS011;54665;51.462;6.698;2023-07-09T04:36:22;11.05;;;5.78;;
67861;SDS011;54665;51.462;6.698;2023-07-09T04:38:22;11.87;;;5.33;;
67861;SDS011;54665;51.462;6.698;2023-07-09T04:40:22;10.53;;;5.80;;
67861;SDS011;54665;51.462;6.698;2023-07-09T04:42:22;7.50;;;4.90;;
67861;SDS011;54665;51.462;6.698;2023-07-09T04:44:23;9.63;;;5.33;;
67861;SDS011;54665;51.462;6.698;2023-07-09T04:46:23;9.97;;;5.37;;
67861;SDS011;54665;51.462;6.698;2023-07-09T04:48:23;11.55;;;5.40;;
67861;SDS011;54665;51.462;6.698;2023-07-09T04:50:24;11.00;;;5.40;;
67861;SDS011;54665;51.462;6.698;2023-07-09T04:52:24;9.53;;;5.13;;
67861;SDS011;54665;51.462;6.698;2023-07-09T04:54:25;10.73;;;5.30;;
67861;SDS011;54665;51.462;6.698;2023-07-09T04:56:26;9.00;;;5.50;;
67861;SDS011;54665;51.462;6.698;2023-07-09T04:58:26;11.83;;;5.80;;
67861;SDS011;54665;51.462;6.698;2023-07-09T05:00:27;11.60;;;5.30;;
67861;SDS011;54665;51.462;6.698;2023-07-09T05:02:27;10.53;;;5.33;;
67861;SDS011;54665;51.462;6.698;2023-07-09T05:04:27;10.73;;;5.47;;
67861;SDS011;54665;51.462;6.698;2023-07-09T05:06:27;10.00;;;5.20;;
67861;SDS011;54665;51.462;6.698;2023-07-09T05:08:28;10.75;;;5.38;;
67861;SDS011;54665;51.462;6.698;2023-07-09T05:10:28;9.73;;;5.13;;
67861;SDS011;54665;51.462;6.698;2023-07-09T05:12:28;10.93;;;5.17;;
67861;SDS011;54665;51.462;6.698;2023-07-09T05:14:29;10.03;;;5.20;;
67861;SDS011;54665;51.462;6.698;2023-07-09T05:16:29;9.33;;;5.30;;
67861;SDS011;54665;51.462;6.698;2023-07-09T05:18:29;8.13;;;5.03;;
67861;SDS011;54665;51.462;6.698;2023-07-09T05:20:30;9.30;;;5.40;;
67861;SDS011;54665;51.462;6.698;2023-07-09T05:22:30;7.47;;;5.00;;
67861;SDS011;54665;51.462;6.698;2023-07-09T05:24:30;9.02;;;4.90;;
67861;SDS011;54665;51.462;6.698;2023-07-09T05:26:30;10.23;;;4.83;;
67861;SDS011;54665;51.462;6.698;2023-07-09T05:28:31;9.20;;;4.90;;
67861;SDS011;54665;51.462;6.698;2023-07-09T05:30:31;9.83;;;5.00;;
67861;SDS011;54665;51.462;6.698;2023-07-09T05:32:32;11.40;;;4.95;;
67861;SDS011;54665;51.462;6.698;2023-07-09T05:34:33;8.80;;;4.80;;
67861;SDS011;54665;51.462;6.698;2023-07-09T05:36:33;9.57;;;4.80;;
67861;SDS011;54665;51.462;6.698;2023-07-09T05:38:34;8.65;;;4.70;;
67861;SDS011;54665;51.462;6.698;2023-07-09T05:40:34;7.60;;;4.53;;
67861;SDS011;54665;51.462;6.698;2023-07-09T05:42:34;8.60;;;4.80;;
67861;SDS011;54665;51.462;6.698;2023-07-09T05:44:35;9.23;;;4.83;;
67861;SDS011;54665;51.462;6.698;2023-07-09T05:46:35;6.67;;;4.77;;
67861;SDS011;54665;51.462;6.698;2023-07-09T05:48:36;8.05;;;4.75;;
67861;SDS011;54665;51.462;6.698;2023-07-09T05:50:36;8.10;;;4.83;;
67861;SDS011;54665;51.462;6.698;2023-07-09T05:52:37;7.90;;;4.70;;
67861;SDS011;54665;51.462;6.698;2023-07-09T05:54:37;7.50;;;4.87;;
67861;SDS011;54665;51.462;6.698;2023-07-09T05:56:37;7.88;;;5.10;;
67861;SDS011;54665;51.462;6.698;2023-07-09T05:58:38;9.67;;;5.00;;
67861;SDS011;54665;51.462;6.698;2023-07-09T06:00:38;9.03;;;4.60;;
67861;SDS011;54665;51.462;6.698;2023-07-09T06:02:38;7.40;;;4.50;;
67861;SDS011;54665;51.462;6.698;2023-07-09T06:04:39;9.23;;;4.63;;
67861;SDS011;54665;51.462;6.698;2023-07-09T06:06:40;9.02;;;4.90;;
67861;SDS011;54665;51.462;6.698;2023-07-09T06:08:41;7.27;;;4.80;;
67861;SDS011;54665;51.462;6.698;2023-07-09T06:10:50;7.73;;;4.70;;
67861;SDS011;54665;51.462;6.698;2023-07-09T06:12:51;7.25;;;4.78;;
67861;SDS011;54665;51.462;6.698;2023-07-09T06:14:51;7.40;;;4.97;;
67861;SDS011;54665;51.462;6.698;2023-07-09T06:16:51;8.83;;;4.83;;
67861;SDS011;54665;51.462;6.698;2023-07-09T06:18:52;8.07;;;4.90;;
67861;SDS011;54665;51.462;6.698;2023-07-09T06:20:54;8.77;;;4.80;;
67861;SDS011;54665;51.462;6.698;2023-07-09T06:22:55;7.43;;;4.80;;
67861;SDS011;54665;51.462;6.698;2023-07-09T06:24:56;8.07;;;4.83;;
67861;SDS011;54665;51.462;6.698;2023-07-09T06:26:56;8.50;;;5.03;;
67861;SDS011;54665;51.462;6.698;2023-07-09T06:28:56;9.63;;;4.83;;
67861;SDS011;54665;51.462;6.698;2023-07-09T06:30:57;7.70;;;4.73;;
67861;SDS011;54665;51.462;6.698;2023-07-09T06:32:57;7.68;;;4.80;;
67861;SDS011;54665;51.462;6.698;2023-07-09T06:34:57;9.27;;;4.87;;
67861;SDS011;54665;51.462;6.698;2023-07-09T06:36:58;7.57;;;5.10;;
67861;SDS011;54665;51.462;6.698;2023-07-09T06:38:58;6.77;;;4.87;;
67861;SDS011;54665;51.462;6.698;2023-07-09T06:40:59;8.00;;;5.00;;
67861;SDS011;54665;51.462;6.698;2023-07-09T06:42:59;7.33;;;4.87;;
67861;SDS011;54665;51.462;6.698;2023-07-09T06:45:06;9.50;;;5.00;;
67861;SDS011;54665;51.462;6.698;2023-07-09T06:47:07;7.60;;;4.82;;
67861;SDS011;54665;51.462;6.698;2023-07-09T06:49:07;6.83;;;4.57;;
67861;SDS011;54665;51.462;6.698;2023-07-09T06:51:07;7.33;;;5.00;;
67861;SDS011;54665;51.462;6.698;2023-07-09T06:53:08;8.40;;;5.30;;
67861;SDS011;54665;51.462;6.698;2023-07-09T06:55:08;7.87;;;4.90;;
67861;SDS011;54665;51.462;6.698;2023-07-09T06:57:08;7.03;;;4.90;;
67861;SDS011;54665;51.462;6.698;2023-07-09T06:59:08;7.68;;;4.97;;
67861;SDS011;54665;51.462;6.698;2023-07-09T07:01:09;6.87;;;4.97;;
67861;SDS011;54665;51.462;6.698;2023-07-09T07:03:09;7.97;;;4.73;;
67861;SDS011;54665;51.462;6.698;2023-07-09T07:05:10;8.77;;;5.23;;
67861;SDS011;54665;51.462;6.698;2023-07-09T07:07:10;8.23;;;4.87;;
67861;SDS011;54665;51.462;6.698;2023-07-09T07:09:10;6.90;;;5.00;;
67861;SDS011;54665;51.462;6.698;2023-07-09T07:11:10;8.27;;;4.97;;
67861;SDS011;54665;51.462;6.698;2023-07-09T07:13:11;6.10;;;4.90;;
67861;SDS011;54665;51.462;6.698;2023-07-09T07:15:12;9.60;;;5.10;;
67861;SDS011;54665;51.462;6.698;2023-07-09T07:17:13;9.95;;;5.60;;
67861;SDS011;54665;51.462;6.698;2023-07-09T07:19:13;8.97;;;5.20;;
67861;SDS011;54665;51.462;6.698;2023-07-09T07:21:14;9.27;;;4.87;;
67861;SDS011;54665;51.462;6.698;2023-07-09T07:23:14;6.27;;;4.83;;
67861;SDS011;54665;51.462;6.698;2023-07-09T07:25:14;9.50;;;5.07;;
67861;SDS011;54665;51.462;6.698;2023-07-09T07:27:15;7.60;;;5.00;;
67861;SDS011;54665;51.462;6.698;2023-07-09T07:29:15;6.80;;;4.68;;
67861;SDS011;54665;51.462;6.698;2023-07-09T07:31:15;5.93;;;4.83;;
67861;SDS011;54665;51.462;6.698;2023-07-09T07:33:16;8.37;;;4.70;;
67861;SDS011;54665;51.462;6.698;2023-07-09T07:35:16;9.17;;;5.10;;
67861;SDS011;54665;51.462;6.698;2023-07-09T07:37:17;10.03;;;5.20;;
67861;SDS011;54665;51.462;6.698;2023-07-09T07:39:18;8.35;;;4.90;;
67861;SDS011;54665;51.462;6.698;2023-07-09T07:41:19;7.07;;;4.97;;
67861;SDS011;54665;51.462;6.698;2023-07-09T07:43:19;6.78;;;5.00;;
67861;SDS011;54665;51.462;6.698;2023-07-09T07:45:20;6.67;;;5.00;;
67861;SDS011;54665;51.462;6.698;2023-07-09T07:47:20;6.77;;;5.07;;
67861;SDS011;54665;51.462;6.698;2023-07-09T07:49:21;6.80;;;4.80;;
67861;SDS011;54665;51.462;6.698;2023-07-09T07:51:21;7.50;;;4.83;;
67861;SDS011;54665;51.462;6.698;2023-07-09T07:53:21;7.50;;;4.80;;
67861;SDS011;54665;51.462;6.698;2023-07-09T07:55:22;7.97;;;4.93;;
67861;SDS011;54665;51.462;6.698;2023-07-09T07:57:24;7.20;;;5.00;;
67861;SDS011;54665;51.462;6.698;2023-07-09T07:59:25;8.05;;;4.95;;
67861;SDS011;54665;51.462;6.698;2023-07-09T08:01:25;7.50;;;5.20;;
67861;SDS011;54665;51.462;6.698;2023-07-09T08:03:25;7.68;;;4.95;;
67861;SDS011;54665;51.462;6.698;2023-07-09T08:05:26;7.20;;;4.97;;
67861;SDS011;54665;51.462;6.698;2023-07-09T08:07:26;7.67;;;4.90;;
67861;SDS011;54665;51.462;6.698;2023-07-09T08:09:27;6.67;;;5.00;;
67861;SDS011;54665;51.462;6.698;2023-07-09T08:11:27;7.77;;;5.40;;
67861;SDS011;54665;51.462;6.698;2023-07-09T08:13:27;7.30;;;5.22;;
67861;SDS011;54665;51.462;6.698;2023-07-09T08:15:28;7.47;;;5.13;;
67861;SDS011;54665;51.462;6.698;2023-07-09T08:17:28;9.40;;;5.07;;
67861;SDS011;54665;51.462;6.698;2023-07-09T08:19:28;7.73;;;5.30;;
67861;SDS011;54665;51.462;6.698;2023-07-09T08:21:28;7.73;;;5.03;;
67861;SDS011;54665;51.462;6.698;2023-07-09T08:23:29;7.23;;;4.90;;
67861;SDS011;54665;51.462;6.698;2023-07-09T08:25:29;7.85;;;5.20;;
67861;SDS011;54665;51.462;6.698;2023-07-09T08:27:30;6.87;;;4.73;;
67861;SDS011;54665;51.462;6.698;2023-07-09T08:29:30;6.80;;;4.70;;
67861;SDS011;54665;51.462;6.698;2023-07-09T08:31:30;6.40;;;4.47;;
67861;SDS011;54665;51.462;6.698;2023-07-09T08:33:31;6.57;;;4.90;;
67861;SDS011;54665;51.462;6.698;2023-07-09T08:35:31;8.50;;;5.03;;
67861;SDS011;54665;51.462;6.698;2023-07-09T08:37:32;7.32;;;4.90;;
67861;SDS011;54665;51.462;6.698;2023-07-09T08:39:32;7.40;;;4.97;;
67861;SDS011;54665;51.462;6.698;2023-07-09T08:41:35;6.97;;;5.47;;
67861;SDS011;54665;51.462;6.698;2023-07-09T08:48:42;7.57;;;4.93;;
67861;SDS011;54665;51.462;6.698;2023-07-09T08:50:47;7.85;;;5.30;;
67861;SDS011;54665;51.462;6.698;2023-07-09T08:52:51;7.10;;;5.17;;
67861;SDS011;54665;51.462;6.698;2023-07-09T08:54:53;7.85;;;5.20;;
67861;SDS011;54665;51.462;6.698;2023-07-09T08:56:56;6.97;;;5.18;;
67861;SDS011;54665;51.462;6.698;2023-07-09T08:59:02;6.70;;;5.03;;
67861;SDS011;54665;51.462;6.698;2023-07-09T09:01:04;7.22;;;5.07;;
67861;SDS011;54665;51.462;6.698;2023-07-09T09:03:10;7.97;;;5.20;;
67861;SDS011;54665;51.462;6.698;2023-07-09T09:05:17;7.28;;;5.13;;
67861;SDS011;54665;51.462;6.698;2023-07-09T09:07:24;8.23;;;5.15;;
67861;SDS011;54665;51.462;6.698;2023-07-09T09:09:36;7.28;;;5.15;;
67861;SDS011;54665;51.462;6.698;2023-07-09T09:11:53;8.38;;;5.10;;
67861;SDS011;54665;51.462;6.698;2023-07-09T09:14:19;7.30;;;5.10;;
67861;SDS011;54665;51.462;6.698;2023-07-09T09:16:30;9.00;;;5.10;;
67861;SDS011;54665;51.462;6.698;2023-07-09T09:18:36;7.72;;;5.10;;
67861;SDS011;54665;51.462;6.698;2023-07-09T09:20:41;7.70;;;5.47;;
67861;SDS011;54665;51.462;6.698;2023-07-09T09:22:43;7.73;;;5.33;;
67861;SDS011;54665;51.462;6.698;2023-07-09T09:27:11;6.65;;;5.30;;
67861;SDS011;54665;51.462;6.698;2023-07-09T09:29:12;9.73;;;5.63;;
67861;SDS011;54665;51.462;6.698;2023-07-09T09:31:14;8.65;;;5.78;;
67861;SDS011;54665;51.462;6.698;2023-07-09T09:33:16;8.50;;;5.45;;
67861;SDS011;54665;51.462;6.698;2023-07-09T09:35:18;6.93;;;5.20;;
67861;SDS011;54665;51.462;6.698;2023-07-09T09:37:26;8.60;;;5.45;;
67861;SDS011;54665;51.462;6.698;2023-07-09T09:39:31;6.90;;;5.25;;
67861;SDS011;54665;51.462;6.698;2023-07-09T09:41:31;9.40;;;5.20;;
67861;SDS011;54665;51.462;6.698;2023-07-09T09:43:37;8.20;;;5.38;;
67861;SDS011;54665;51.462;6.698;2023-07-09T09:45:38;8.95;;;5.85;;
67861;SDS011;54665;51.462;6.698;2023-07-09T09:47:39;8.85;;;5.57;;
67861;SDS011;54665;51.462;6.698;2023-07-09T09:49:40;6.70;;;5.50;;
67861;SDS011;54665;51.462;6.698;2023-07-09T09:51:42;7.53;;;5.33;;
67861;SDS011;54665;51.462;6.698;2023-07-09T09:53:46;7.37;;;5.30;;
67861;SDS011;54665;51.462;6.698;2023-07-09T09:55:50;8.88;;;5.50;;
67861;SDS011;54665;51.462;6.698;2023-07-09T09:57:53;10.35;;;5.57;;
67861;SDS011;54665;51.462;6.698;2023-07-09T09:59:54;9.07;;;5.72;;
67861;SDS011;54665;51.462;6.698;2023-07-09T10:01:58;8.37;;;5.70;;
67861;SDS011;54665;51.462;6.698;2023-07-09T10:04:01;10.00;;;6.03;;
67861;SDS011;54665;51.462;6.698;2023-07-09T10:06:12;10.68;;;5.50;;
67861;SDS011;54665;51.462;6.698;2023-07-09T10:08:34;8.65;;;5.53;;
67861;SDS011;54665;51.462;6.698;2023-07-09T10:10:45;7.00;;;5.82;;
67861;SDS011;54665;51.462;6.698;2023-07-09T10:12:53;7.80;;;5.40;;
67861;SDS011;54665;51.462;6.698;2023-07-09T10:15:01;8.38;;;5.70;;
67861;SDS011;54665;51.462;6.698;2023-07-09T10:17:53;7.22;;;5.50;;
67861;SDS011;54665;51.462;6.698;2023-07-09T10:19:56;8.48;;;5.80;;
67861;SDS011;54665;51.462;6.698;2023-07-09T10:22:00;9.93;;;5.73;;
67861;SDS011;54665;51.462;6.698;2023-07-09T10:24:16;6.93;;;5.30;;
67861;SDS011;54665;51.462;6.698;2023-07-09T10:26:30;10.68;;;5.40;;
67861;SDS011;54665;51.462;6.698;2023-07-09T10:33:11;8.90;;;5.70;;
67861;SDS011;54665;51.462;6.698;2023-07-09T10:35:23;9.47;;;5.13;;
67861;SDS011;54665;51.462;6.698;2023-07-09T10:39:53;9.85;;;5.60;;
67861;SDS011;54665;51.462;6.698;2023-07-09T10:41:57;7.13;;;4.97;;
67861;SDS011;54665;51.462;6.698;2023-07-09T10:44:01;6.95;;;4.82;;
67861;SDS011;54665;51.462;6.698;2023-07-09T10:46:11;6.40;;;5.00;;
67861;SDS011;54665;51.462;6.698;2023-07-09T10:48:23;7.05;;;5.05;;
67861;SDS011;54665;51.462;6.698;2023-07-09T10:50:32;9.00;;;5.18;;
67861;SDS011;54665;51.462;6.698;2023-07-09T10:52:39;7.82;;;4.70;;
67861;SDS011;54665;51.462;6.698;2023-07-09T10:54:54;7.40;;;4.85;;
67861;SDS011;54665;51.462;6.698;2023-07-09T10:57:05;7.40;;;4.60;;
67861;SDS011;54665;51.462;6.698;2023-07-09T11:01:47;7.10;;;5.00;;
67861;SDS011;54665;51.462;6.698;2023-07-09T11:03:52;7.28;;;5.18;;
67861;SDS011;54665;51.462;6.698;2023-07-09T11:05:55;6.88;;;5.20;;
67861;SDS011;54665;51.462;6.698;2023-07-09T11:08:12;7.33;;;5.17;;
67861;SDS011;54665;51.462;6.698;2023-07-09T11:12:21;9.77;;;5.37;;
67861;SDS011;54665;51.462;6.698;2023-07-09T11:14:31;7.65;;;5.60;;
67861;SDS011;54665;51.462;6.698;2023-07-09T11:16:37;7.57;;;5.90;;
67861;SDS011;54665;51.462;6.698;2023-07-09T11:18:40;9.93;;;5.78;;
67861;SDS011;54665;51.462;6.698;2023-07-09T11:20:42;7.53;;;5.70;;
67861;SDS011;54665;51.462;6.698;2023-07-09T11:22:50;8.40;;;5.40;;
67861;SDS011;54665;51.462;6.698;2023-07-09T11:25:03;7.68;;;5.30;;
67861;SDS011;54665;51.462;6.698;2023-07-09T11:27:15;8.27;;;5.50;;
67861;SDS011;54665;51.462;6.698;2023-07-09T11:29:27;8.45;;;5.68;;
67861;SDS011;54665;51.462;6.698;2023-07-09T11:31:34;7.07;;;5.65;;
67861;SDS011;54665;51.462;6.698;2023-07-09T11:33:44;8.20;;;5.60;;
67861;SDS011;54665;51.462;6.698;2023-07-09T11:35:50;8.93;;;5.40;;
67861;SDS011;54665;51.462;6.698;2023-07-09T11:37:52;7.28;;;5.25;;
67861;SDS011;54665;51.462;6.698;2023-07-09T11:39:53;7.65;;;5.22;;
67861;SDS011;54665;51.462;6.698;2023-07-09T11:41:54;8.53;;;5.40;;
67861;SDS011;54665;51.462;6.698;2023-07-09T11:44:12;7.72;;;5.30;;
67861;SDS011;54665;51.462;6.698;2023-07-09T11:46:26;7.43;;;5.80;;
67861;SDS011;54665;51.462;6.698;2023-07-09T11:48:27;8.77;;;5.70;;
67861;SDS011;54665;51.462;6.698;2023-07-09T11:50:35;9.23;;;5.70;;
67861;SDS011;54665;51.462;6.698;2023-07-09T11:54:51;8.10;;;5.20;;
67861;SDS011;54665;51.462;6.698;2023-07-09T11:56:56;8.20;;;5.30;;
67861;SDS011;54665;51.462;6.698;2023-07-09T11:58:57;7.77;;;5.40;;
67861;SDS011;54665;51.462;6.698;2023-07-09T12:00:58;7.68;;;5.20;;
67861;SDS011;54665;51.462;6.698;2023-07-09T12:02:59;7.78;;;5.47;;
67861;SDS011;54665;51.462;6.698;2023-07-09T12:05:00;9.03;;;5.17;;
67861;SDS011;54665;51.462;6.698;2023-07-09T12:07:02;5.53;;;4.93;;
67861;SDS011;54665;51.462;6.698;2023-07-09T12:09:03;6.70;;;4.70;;
67861;SDS011;54665;51.462;6.698;2023-07-09T12:11:04;8.63;;;5.90;;
67861;SDS011;54665;51.462;6.698;2023-07-09T12:13:04;6.20;;;5.03;;
67861;SDS011;54665;51.462;6.698;2023-07-09T12:15:05;6.47;;;4.70;;
67861;SDS011;54665;51.462;6.698;2023-07-09T12:17:15;6.33;;;5.20;;
67861;SDS011;54665;51.462;6.698;2023-07-09T12:19:19;6.50;;;5.10;;
67861;SDS011;54665;51.462;6.698;2023-07-09T12:21:22;11.10;;;5.27;;
67861;SDS011;54665;51.462;6.698;2023-07-09T12:23:30;15.63;;;5.22;;
67861;SDS011;54665;51.462;6.698;2023-07-09T12:25:32;7.35;;;5.30;;
67861;SDS011;54665;51.462;6.698;2023-07-09T12:27:32;6.60;;;5.23;;
67861;SDS011;54665;51.462;6.698;2023-07-09T12:29:35;7.27;;;5.20;;
67861;SDS011;54665;51.462;6.698;2023-07-09T12:31:36;8.60;;;5.40;;
67861;SDS011;54665;51.462;6.698;2023-07-09T12:33:36;6.77;;;5.30;;
67861;SDS011;54665;51.462;6.698;2023-07-09T12:35:36;7.07;;;5.30;;